Liphook, United Kingdom
Current Conditions -  °F | °C
As of 11:50 PM on Tuesday 25 Nov 2014 (Local Time) from EGVO Reporting Station
Moderate Rain Moderate Rain  
Wind Chill:   Ceiling: 300
Heat Index:   Visibility: 0.37mi
Dew Point:   Wind: 6mph
Humidity: 100%   Direction: 340°NNW
Pressure: 29.94"   Gusts: NA
Location:  51.08°N, 0.8°W
Report Text: EGVO 252350Z 34005KT 0600 RADZ SCT001 BKN003 OVC009 07/07 Q1014 RED
Loading
Personal Weather Stations






























Interactive Weather Map New forecast layout! Learn more

10-Day Weather Forecast

Advertisements
Track Severe Weather on mobile